sensor_id;sensor_type;location;lat;lon;timestamp;temperature;humidity
13713;DHT22;6928;50.546;7.120;2023-11-21T00:02:10;9.10;95.10
13713;DHT22;6928;50.546;7.120;2023-11-21T00:04:37;9.06;94.82
13713;DHT22;6928;50.546;7.120;2023-11-21T00:07:04;9.02;94.81
13713;DHT22;6928;50.546;7.120;2023-11-21T00:09:32;9.09;94.71
13713;DHT22;6928;50.546;7.120;2023-11-21T00:12:00;9.13;94.49
13713;DHT22;6928;50.546;7.120;2023-11-21T00:14:27;9.10;94.45
13713;DHT22;6928;50.546;7.120;2023-11-21T00:16:54;9.06;94.49
13713;DHT22;6928;50.546;7.120;2023-11-21T00:19:21;9.08;94.60
13713;DHT22;6928;50.546;7.120;2023-11-21T00:21:48;9.13;94.54
13713;DHT22;6928;50.546;7.120;2023-11-21T00:24:16;9.05;94.62
13713;DHT22;6928;50.546;7.120;2023-11-21T00:26:43;9.08;94.58
13713;DHT22;6928;50.546;7.120;2023-11-21T00:29:11;9.15;94.59
13713;DHT22;6928;50.546;7.120;2023-11-21T00:31:38;9.16;94.44
13713;DHT22;6928;50.546;7.120;2023-11-21T00:34:05;9.18;94.47
13713;DHT22;6928;50.546;7.120;2023-11-21T00:36:32;9.19;94.39
13713;DHT22;6928;50.546;7.120;2023-11-21T00:38:58;9.20;94.52
13713;DHT22;6928;50.546;7.120;2023-11-21T00:41:25;9.05;94.95
13713;DHT22;6928;50.546;7.120;2023-11-21T00:43:53;8.98;94.84
13713;DHT22;6928;50.546;7.120;2023-11-21T00:46:21;9.03;94.67
13713;DHT22;6928;50.546;7.120;2023-11-21T00:48:49;8.99;94.48
13713;DHT22;6928;50.546;7.120;2023-11-21T00:51:16;9.02;94.49
13713;DHT22;6928;50.546;7.120;2023-11-21T00:53:43;9.08;94.64
13713;DHT22;6928;50.546;7.120;2023-11-21T00:56:10;9.05;94.54
13713;DHT22;6928;50.546;7.120;2023-11-21T00:58:37;9.18;94.55
13713;DHT22;6928;50.546;7.120;2023-11-21T01:01:04;9.12;94.32
13713;DHT22;6928;50.546;7.120;2023-11-21T01:03:33;9.05;94.41
13713;DHT22;6928;50.546;7.120;2023-11-21T01:05:59;9.09;94.52
13713;DHT22;6928;50.546;7.120;2023-11-21T01:08:26;8.84;95.10
13713;DHT22;6928;50.546;7.120;2023-11-21T01:10:54;8.81;95.26
13713;DHT22;6928;50.546;7.120;2023-11-21T01:13:21;8.87;94.99
13713;DHT22;6928;50.546;7.120;2023-11-21T01:15:48;9.08;94.86
13713;DHT22;6928;50.546;7.120;2023-11-21T01:18:16;9.12;94.67
13713;DHT22;6928;50.546;7.120;2023-11-21T01:20:44;9.06;94.71
13713;DHT22;6928;50.546;7.120;2023-11-21T01:23:12;9.12;94.67
13713;DHT22;6928;50.546;7.120;2023-11-21T01:25:39;9.09;94.54
13713;DHT22;6928;50.546;7.120;2023-11-21T01:28:06;9.09;94.95
13713;DHT22;6928;50.546;7.120;2023-11-21T01:30:33;9.09;94.75
13713;DHT22;6928;50.546;7.120;2023-11-21T01:33:01;9.05;94.54
13713;DHT22;6928;50.546;7.120;2023-11-21T01:35:28;9.16;94.53
13713;DHT22;6928;50.546;7.120;2023-11-21T01:37:57;9.06;94.57
13713;DHT22;6928;50.546;7.120;2023-11-21T01:40:24;9.06;94.72
13713;DHT22;6928;50.546;7.120;2023-11-21T01:42:53;9.10;94.49
13713;DHT22;6928;50.546;7.120;2023-11-21T01:45:20;9.05;94.63
13713;DHT22;6928;50.546;7.120;2023-11-21T01:47:47;9.12;94.40
13713;DHT22;6928;50.546;7.120;2023-11-21T01:50:17;9.18;94.34
13713;DHT22;6928;50.546;7.120;2023-11-21T01:52:48;9.12;94.20
13713;DHT22;6928;50.546;7.120;2023-11-21T01:55:17;9.09;94.23
13713;DHT22;6928;50.546;7.120;2023-11-21T01:57:45;9.08;94.45
13713;DHT22;6928;50.546;7.120;2023-11-21T02:00:13;9.19;94.22
13713;DHT22;6928;50.546;7.120;2023-11-21T02:02:43;9.16;94.26
13713;DHT22;6928;50.546;7.120;2023-11-21T02:05:10;9.15;94.03
13713;DHT22;6928;50.546;7.120;2023-11-21T02:07:40;9.12;94.10
13713;DHT22;6928;50.546;7.120;2023-11-21T02:10:09;9.18;94.38
13713;DHT22;6928;50.546;7.120;2023-11-21T02:12:40;9.15;94.45
13713;DHT22;6928;50.546;7.120;2023-11-21T02:15:09;9.15;94.37
13713;DHT22;6928;50.546;7.120;2023-11-21T02:17:41;9.20;94.29
13713;DHT22;6928;50.546;7.120;2023-11-21T02:20:10;9.10;94.49
13713;DHT22;6928;50.546;7.120;2023-11-21T02:22:41;9.19;94.23
13713;DHT22;6928;50.546;7.120;2023-11-21T02:25:10;9.15;94.20
13713;DHT22;6928;50.546;7.120;2023-11-21T02:27:37;9.09;94.28
13713;DHT22;6928;50.546;7.120;2023-11-21T02:30:05;9.08;94.43
13713;DHT22;6928;50.546;7.120;2023-11-21T02:32:33;9.05;94.70
13713;DHT22;6928;50.546;7.120;2023-11-21T02:35:02;9.08;94.62
13713;DHT22;6928;50.546;7.120;2023-11-21T02:37:33;9.02;94.67
13713;DHT22;6928;50.546;7.120;2023-11-21T02:40:00;9.00;94.77
13713;DHT22;6928;50.546;7.120;2023-11-21T02:42:30;9.10;94.83
13713;DHT22;6928;50.546;7.120;2023-11-21T02:44:57;9.15;94.70
13713;DHT22;6928;50.546;7.120;2023-11-21T02:47:24;9.08;94.66
13713;DHT22;6928;50.546;7.120;2023-11-21T02:49:51;9.09;95.05
13713;DHT22;6928;50.546;7.120;2023-11-21T02:52:18;9.08;94.92
13713;DHT22;6928;50.546;7.120;2023-11-21T02:54:45;9.06;95.01
13713;DHT22;6928;50.546;7.120;2023-11-21T02:57:12;9.05;95.05
13713;DHT22;6928;50.546;7.120;2023-11-21T02:59:41;9.08;95.08
13713;DHT22;6928;50.546;7.120;2023-11-21T03:02:08;9.13;95.10
13713;DHT22;6928;50.546;7.120;2023-11-21T03:04:34;9.12;95.07
13713;DHT22;6928;50.546;7.120;2023-11-21T03:07:01;9.06;95.07
13713;DHT22;6928;50.546;7.120;2023-11-21T03:09:29;9.16;94.89
13713;DHT22;6928;50.546;7.120;2023-11-21T03:11:56;9.18;94.68
13713;DHT22;6928;50.546;7.120;2023-11-21T03:14:22;9.13;94.61
13713;DHT22;6928;50.546;7.120;2023-11-21T03:16:51;9.18;95.11
13713;DHT22;6928;50.546;7.120;2023-11-21T03:19:18;9.20;94.96
13713;DHT22;6928;50.546;7.120;2023-11-21T03:21:44;9.20;94.82
13713;DHT22;6928;50.546;7.120;2023-11-21T03:24:12;9.24;94.69
13713;DHT22;6928;50.546;7.120;2023-11-21T03:26:39;9.19;94.66
13713;DHT22;6928;50.546;7.120;2023-11-21T03:29:05;8.96;94.34
13713;DHT22;6928;50.546;7.120;2023-11-21T03:31:32;8.93;94.89
13713;DHT22;6928;50.546;7.120;2023-11-21T03:34:00;9.13;94.81
13713;DHT22;6928;50.546;7.120;2023-11-21T03:36:27;9.10;94.37
13713;DHT22;6928;50.546;7.120;2023-11-21T03:38:54;9.16;94.65
13713;DHT22;6928;50.546;7.120;2023-11-21T03:41:21;9.13;94.12
13713;DHT22;6928;50.546;7.120;2023-11-21T03:43:48;9.08;93.96
13713;DHT22;6928;50.546;7.120;2023-11-21T03:46:14;9.13;94.23
13713;DHT22;6928;50.546;7.120;2023-11-21T03:48:41;9.19;94.51
13713;DHT22;6928;50.546;7.120;2023-11-21T03:51:10;9.16;94.64
13713;DHT22;6928;50.546;7.120;2023-11-21T03:53:36;9.16;94.42
13713;DHT22;6928;50.546;7.120;2023-11-21T03:56:05;9.10;94.36
13713;DHT22;6928;50.546;7.120;2023-11-21T03:58:33;9.19;94.04
13713;DHT22;6928;50.546;7.120;2023-11-21T04:01:00;9.16;94.12
13713;DHT22;6928;50.546;7.120;2023-11-21T04:03:27;9.12;93.88
13713;DHT22;6928;50.546;7.120;2023-11-21T04:05:53;9.19;94.14
13713;DHT22;6928;50.546;7.120;2023-11-21T04:08:21;9.06;93.79
13713;DHT22;6928;50.546;7.120;2023-11-21T04:10:48;9.10;93.69
13713;DHT22;6928;50.546;7.120;2023-11-21T04:13:15;9.08;93.95
13713;DHT22;6928;50.546;7.120;2023-11-21T04:15:42;9.03;93.89
13713;DHT22;6928;50.546;7.120;2023-11-21T04:18:12;9.19;93.78
13713;DHT22;6928;50.546;7.120;2023-11-21T04:20:39;9.09;93.89
13713;DHT22;6928;50.546;7.120;2023-11-21T04:23:05;9.13;93.97
13713;DHT22;6928;50.546;7.120;2023-11-21T04:25:35;9.03;93.68
13713;DHT22;6928;50.546;7.120;2023-11-21T04:28:02;9.02;93.73
13713;DHT22;6928;50.546;7.120;2023-11-21T04:30:29;9.05;93.93
13713;DHT22;6928;50.546;7.120;2023-11-21T04:32:56;9.08;94.07
13713;DHT22;6928;50.546;7.120;2023-11-21T04:35:23;8.96;94.03
13713;DHT22;6928;50.546;7.120;2023-11-21T04:37:52;8.93;93.80
13713;DHT22;6928;50.546;7.120;2023-11-21T04:40:22;9.02;94.06
13713;DHT22;6928;50.546;7.120;2023-11-21T04:42:49;9.02;94.11
13713;DHT22;6928;50.546;7.120;2023-11-21T04:45:16;8.93;94.32
13713;DHT22;6928;50.546;7.120;2023-11-21T04:47:43;9.05;94.19
13713;DHT22;6928;50.546;7.120;2023-11-21T04:50:10;8.99;93.94
13713;DHT22;6928;50.546;7.120;2023-11-21T04:52:37;8.91;93.93
13713;DHT22;6928;50.546;7.120;2023-11-21T04:55:05;8.89;94.34
13713;DHT22;6928;50.546;7.120;2023-11-21T04:57:35;8.95;93.95
13713;DHT22;6928;50.546;7.120;2023-11-21T05:00:05;9.06;93.96
13713;DHT22;6928;50.546;7.120;2023-11-21T05:02:33;9.00;94.12
13713;DHT22;6928;50.546;7.120;2023-11-21T05:05:00;8.92;93.96
13713;DHT22;6928;50.546;7.120;2023-11-21T05:07:27;8.92;94.31
13713;DHT22;6928;50.546;7.120;2023-11-21T05:09:55;8.87;94.13
13713;DHT22;6928;50.546;7.120;2023-11-21T05:12:22;8.89;94.09
13713;DHT22;6928;50.546;7.120;2023-11-21T05:14:49;8.98;93.88
13713;DHT22;6928;50.546;7.120;2023-11-21T05:17:17;8.96;94.00
13713;DHT22;6928;50.546;7.120;2023-11-21T05:19:44;8.95;94.14
13713;DHT22;6928;50.546;7.120;2023-11-21T05:22:13;8.92;94.28
13713;DHT22;6928;50.546;7.120;2023-11-21T05:24:40;8.98;94.08
13713;DHT22;6928;50.546;7.120;2023-11-21T05:27:07;8.92;94.07
13713;DHT22;6928;50.546;7.120;2023-11-21T05:29:35;8.96;93.98
13713;DHT22;6928;50.546;7.120;2023-11-21T05:32:03;8.93;94.15
13713;DHT22;6928;50.546;7.120;2023-11-21T05:34:32;8.88;94.04
13713;DHT22;6928;50.546;7.120;2023-11-21T05:36:58;8.95;93.87
13713;DHT22;6928;50.546;7.120;2023-11-21T05:39:25;8.98;93.82
13713;DHT22;6928;50.546;7.120;2023-11-21T05:41:53;8.88;93.87
13713;DHT22;6928;50.546;7.120;2023-11-21T05:44:20;8.85;93.75
13713;DHT22;6928;50.546;7.120;2023-11-21T05:46:49;8.89;93.80
13713;DHT22;6928;50.546;7.120;2023-11-21T05:49:16;8.87;93.71
13713;DHT22;6928;50.546;7.120;2023-11-21T05:51:48;8.88;93.66
13713;DHT22;6928;50.546;7.120;2023-11-21T05:54:15;8.84;93.77
13713;DHT22;6928;50.546;7.120;2023-11-21T05:56:42;8.85;93.76
13713;DHT22;6928;50.546;7.120;2023-11-21T05:59:09;8.82;93.82
13713;DHT22;6928;50.546;7.120;2023-11-21T06:01:36;8.82;93.59
13713;DHT22;6928;50.546;7.120;2023-11-21T06:04:04;8.82;93.51
13713;DHT22;6928;50.546;7.120;2023-11-21T06:06:33;8.81;93.56
13713;DHT22;6928;50.546;7.120;2023-11-21T06:09:02;8.78;93.64
13713;DHT22;6928;50.546;7.120;2023-11-21T06:11:28;8.78;93.55
13713;DHT22;6928;50.546;7.120;2023-11-21T06:13:56;8.81;93.58
13713;DHT22;6928;50.546;7.120;2023-11-21T06:16:22;8.79;93.80
13713;DHT22;6928;50.546;7.120;2023-11-21T06:18:49;8.79;93.69
13713;DHT22;6928;50.546;7.120;2023-11-21T06:21:16;8.73;93.55
13713;DHT22;6928;50.546;7.120;2023-11-21T06:23:44;8.85;93.64
13713;DHT22;6928;50.546;7.120;2023-11-21T06:26:12;8.93;93.83
13713;DHT22;6928;50.546;7.120;2023-11-21T06:28:39;8.81;93.60
13713;DHT22;6928;50.546;7.120;2023-11-21T06:31:06;8.76;93.89
13713;DHT22;6928;50.546;7.120;2023-11-21T06:33:33;8.75;93.64
13713;DHT22;6928;50.546;7.120;2023-11-21T06:36:00;8.79;93.56
13713;DHT22;6928;50.546;7.120;2023-11-21T06:38:28;8.79;93.53
13713;DHT22;6928;50.546;7.120;2023-11-21T06:40:55;8.69;93.70
13713;DHT22;6928;50.546;7.120;2023-11-21T06:43:24;8.71;93.65
13713;DHT22;6928;50.546;7.120;2023-11-21T06:45:52;8.73;93.52
13713;DHT22;6928;50.546;7.120;2023-11-21T06:48:19;8.69;93.42
13713;DHT22;6928;50.546;7.120;2023-11-21T06:50:49;8.72;93.44
13713;DHT22;6928;50.546;7.120;2023-11-21T06:53:17;8.92;93.56
13713;DHT22;6928;50.546;7.120;2023-11-21T06:55:44;8.76;93.35
13713;DHT22;6928;50.546;7.120;2023-11-21T06:58:11;8.79;93.34
13713;DHT22;6928;50.546;7.120;2023-11-21T07:00:41;8.81;93.43
13713;DHT22;6928;50.546;7.120;2023-11-21T07:03:12;8.78;93.29
13713;DHT22;6928;50.546;7.120;2023-11-21T07:05:38;8.79;93.51
13713;DHT22;6928;50.546;7.120;2023-11-21T07:08:05;8.82;93.56
13713;DHT22;6928;50.546;7.120;2023-11-21T07:10:33;8.87;93.25
13713;DHT22;6928;50.546;7.120;2023-11-21T07:13:00;8.87;93.52
13713;DHT22;6928;50.546;7.120;2023-11-21T07:15:27;8.91;93.41
13713;DHT22;6928;50.546;7.120;2023-11-21T07:17:55;8.93;93.19
13713;DHT22;6928;50.546;7.120;2023-11-21T07:20:22;8.82;93.08
13713;DHT22;6928;50.546;7.120;2023-11-21T07:22:49;8.79;93.14
13713;DHT22;6928;50.546;7.120;2023-11-21T07:25:16;8.95;93.03
13713;DHT22;6928;50.546;7.120;2023-11-21T07:27:43;8.96;92.87
13713;DHT22;6928;50.546;7.120;2023-11-21T07:30:12;9.00;93.01
13713;DHT22;6928;50.546;7.120;2023-11-21T07:32:39;8.99;93.09
13713;DHT22;6928;50.546;7.120;2023-11-21T07:35:08;8.92;93.28
13713;DHT22;6928;50.546;7.120;2023-11-21T07:37:35;8.99;93.38
13713;DHT22;6928;50.546;7.120;2023-11-21T07:40:04;9.06;93.19
13713;DHT22;6928;50.546;7.120;2023-11-21T07:42:31;9.03;93.28
13713;DHT22;6928;50.546;7.120;2023-11-21T07:44:58;9.08;93.18
13713;DHT22;6928;50.546;7.120;2023-11-21T07:47:25;9.06;92.99
13713;DHT22;6928;50.546;7.120;2023-11-21T07:49:52;9.15;93.23
13713;DHT22;6928;50.546;7.120;2023-11-21T07:52:22;9.12;93.06
13713;DHT22;6928;50.546;7.120;2023-11-21T07:54:49;9.03;93.00
13713;DHT22;6928;50.546;7.120;2023-11-21T07:57:16;9.02;93.06
13713;DHT22;6928;50.546;7.120;2023-11-21T07:59:43;9.05;93.07
13713;DHT22;6928;50.546;7.120;2023-11-21T08:02:12;9.06;93.27
13713;DHT22;6928;50.546;7.120;2023-11-21T08:04:39;9.05;93.01
13713;DHT22;6928;50.546;7.120;2023-11-21T08:07:06;9.10;92.89
13713;DHT22;6928;50.546;7.120;2023-11-21T08:09:34;9.09;92.79
13713;DHT22;6928;50.546;7.120;2023-11-21T08:12:02;9.00;92.84
13713;DHT22;6928;50.546;7.120;2023-11-21T08:14:30;9.03;92.86
13713;DHT22;6928;50.546;7.120;2023-11-21T08:16:57;8.99;93.27
13713;DHT22;6928;50.546;7.120;2023-11-21T08:19:24;9.08;93.25
13713;DHT22;6928;50.546;7.120;2023-11-21T08:21:52;8.93;93.41
13713;DHT22;6928;50.546;7.120;2023-11-21T08:24:20;9.00;93.47
13713;DHT22;6928;50.546;7.120;2023-11-21T08:26:48;9.05;93.73
13713;DHT22;6928;50.546;7.120;2023-11-21T08:29:16;9.03;93.49
13713;DHT22;6928;50.546;7.120;2023-11-21T08:31:43;9.05;93.41
13713;DHT22;6928;50.546;7.120;2023-11-21T08:34:12;9.00;93.62
13713;DHT22;6928;50.546;7.120;2023-11-21T08:36:42;9.06;93.68
13713;DHT22;6928;50.546;7.120;2023-11-21T08:39:09;8.96;93.62
13713;DHT22;6928;50.546;7.120;2023-11-21T08:41:36;9.00;93.73
13713;DHT22;6928;50.546;7.120;2023-11-21T08:44:05;9.05;93.78
13713;DHT22;6928;50.546;7.120;2023-11-21T08:46:33;9.02;93.64
13713;DHT22;6928;50.546;7.120;2023-11-21T08:49:02;9.02;93.89
13713;DHT22;6928;50.546;7.120;2023-11-21T08:51:29;9.08;93.71
13713;DHT22;6928;50.546;7.120;2023-11-21T08:53:57;9.18;93.85
13713;DHT22;6928;50.546;7.120;2023-11-21T08:56:26;9.13;93.77
13713;DHT22;6928;50.546;7.120;2023-11-21T08:58:53;9.09;93.73
13713;DHT22;6928;50.546;7.120;2023-11-21T09:01:21;9.18;94.00
13713;DHT22;6928;50.546;7.120;2023-11-21T09:03:48;9.18;93.60
13713;DHT22;6928;50.546;7.120;2023-11-21T09:06:16;9.23;93.69
13713;DHT22;6928;50.546;7.120;2023-11-21T09:08:52;9.16;93.47
13713;DHT22;6928;50.546;7.120;2023-11-21T09:11:19;9.18;93.50
13713;DHT22;6928;50.546;7.120;2023-11-21T09:13:46;9.15;93.51
13713;DHT22;6928;50.546;7.120;2023-11-21T09:16:14;9.20;93.57
13713;DHT22;6928;50.546;7.120;2023-11-21T09:18:43;9.20;93.46
13713;DHT22;6928;50.546;7.120;2023-11-21T09:21:10;9.26;93.33
13713;DHT22;6928;50.546;7.120;2023-11-21T09:23:38;9.27;93.34
13713;DHT22;6928;50.546;7.120;2023-11-21T09:26:06;9.23;93.11
13713;DHT22;6928;50.546;7.120;2023-11-21T09:28:34;9.31;93.17
13713;DHT22;6928;50.546;7.120;2023-11-21T09:31:05;9.29;93.18
13713;DHT22;6928;50.546;7.120;2023-11-21T09:33:34;9.22;93.18
13713;DHT22;6928;50.546;7.120;2023-11-21T09:36:03;9.27;93.11
13713;DHT22;6928;50.546;7.120;2023-11-21T09:38:30;9.33;93.06
13713;DHT22;6928;50.546;7.120;2023-11-21T09:40:58;9.39;93.04
13713;DHT22;6928;50.546;7.120;2023-11-21T09:43:27;9.33;93.15
13713;DHT22;6928;50.546;7.120;2023-11-21T09:46:00;9.33;93.25
13713;DHT22;6928;50.546;7.120;2023-11-21T09:48:30;9.30;93.38
13713;DHT22;6928;50.546;7.120;2023-11-21T09:51:00;9.36;93.14
13713;DHT22;6928;50.546;7.120;2023-11-21T09:53:34;9.30;93.03
13713;DHT22;6928;50.546;7.120;2023-11-21T09:56:04;9.34;93.21
13713;DHT22;6928;50.546;7.120;2023-11-21T09:58:32;9.30;92.88
13713;DHT22;6928;50.546;7.120;2023-11-21T10:01:01;9.39;93.09
13713;DHT22;6928;50.546;7.120;2023-11-21T10:03:30;9.43;92.71
13713;DHT22;6928;50.546;7.120;2023-11-21T10:05:57;9.52;92.81
13713;DHT22;6928;50.546;7.120;2023-11-21T10:08:27;9.48;92.57
13713;DHT22;6928;50.546;7.120;2023-11-21T10:10:57;9.47;92.51
13713;DHT22;6928;50.546;7.120;2023-11-21T10:13:27;9.48;92.77
13713;DHT22;6928;50.546;7.120;2023-11-21T10:15:56;9.60;92.87
13713;DHT22;6928;50.546;7.120;2023-11-21T10:18:26;9.67;92.87
13713;DHT22;6928;50.546;7.120;2023-11-21T10:20:54;9.61;92.62
13713;DHT22;6928;50.546;7.120;2023-11-21T10:23:24;9.65;92.53
13713;DHT22;6928;50.546;7.120;2023-11-21T10:25:52;9.62;92.56
13713;DHT22;6928;50.546;7.120;2023-11-21T10:28:21;9.64;92.52
13713;DHT22;6928;50.546;7.120;2023-11-21T10:30:48;9.65;92.71
13713;DHT22;6928;50.546;7.120;2023-11-21T10:33:15;9.78;92.38
13713;DHT22;6928;50.546;7.120;2023-11-21T10:35:47;9.79;92.46
13713;DHT22;6928;50.546;7.120;2023-11-21T10:38:16;9.71;92.29
13713;DHT22;6928;50.546;7.120;2023-11-21T10:40:44;9.70;92.30
13713;DHT22;6928;50.546;7.120;2023-11-21T10:43:12;9.77;92.26
13713;DHT22;6928;50.546;7.120;2023-11-21T10:45:42;9.91;92.62
13713;DHT22;6928;50.546;7.120;2023-11-21T10:48:12;9.87;92.56
13713;DHT22;6928;50.546;7.120;2023-11-21T10:50:41;9.88;92.53
13713;DHT22;6928;50.546;7.120;2023-11-21T10:53:09;9.89;92.38
13713;DHT22;6928;50.546;7.120;2023-11-21T10:55:37;9.89;91.83
13713;DHT22;6928;50.546;7.120;2023-11-21T10:58:04;9.92;91.59
13713;DHT22;6928;50.546;7.120;2023-11-21T11:00:33;9.94;91.85
13713;DHT22;6928;50.546;7.120;2023-11-21T11:03:02;9.98;91.62
13713;DHT22;6928;50.546;7.120;2023-11-21T11:05:30;10.01;92.15
13713;DHT22;6928;50.546;7.120;2023-11-21T11:07:59;9.91;91.54
13713;DHT22;6928;50.546;7.120;2023-11-21T11:10:27;9.94;91.22
13713;DHT22;6928;50.546;7.120;2023-11-21T11:12:55;10.01;91.64
13713;DHT22;6928;50.546;7.120;2023-11-21T11:15:23;9.97;91.19
13713;DHT22;6928;50.546;7.120;2023-11-21T11:17:50;10.01;91.59
13713;DHT22;6928;50.546;7.120;2023-11-21T11:20:22;9.97;91.17
13713;DHT22;6928;50.546;7.120;2023-11-21T11:23:04;10.02;91.14
13713;DHT22;6928;50.546;7.120;2023-11-21T11:25:57;10.09;91.39
13713;DHT22;6928;50.546;7.120;2023-11-21T11:28:39;10.08;91.05
13713;DHT22;6928;50.546;7.120;2023-11-21T11:31:18;10.03;90.93
13713;DHT22;6928;50.546;7.120;2023-11-21T11:34:04;10.16;90.97
13713;DHT22;6928;50.546;7.120;2023-11-21T11:36:41;10.25;91.01
13713;DHT22;6928;50.546;7.120;2023-11-21T11:39:28;10.33;90.92
13713;DHT22;6928;50.546;7.120;2023-11-21T11:41:56;10.28;90.48
13713;DHT22;6928;50.546;7.120;2023-11-21T11:44:53;10.36;90.41
13713;DHT22;6928;50.546;7.120;2023-11-21T11:47:27;10.37;90.28
13713;DHT22;6928;50.546;7.120;2023-11-21T11:50:04;10.41;91.06
13713;DHT22;6928;50.546;7.120;2023-11-21T11:52:37;10.39;90.38
13713;DHT22;6928;50.546;7.120;2023-11-21T11:55:06;10.34;90.09
13713;DHT22;6928;50.546;7.120;2023-11-21T11:57:35;10.36;90.27
13713;DHT22;6928;50.546;7.120;2023-11-21T12:00:12;10.40;90.34
13713;DHT22;6928;50.546;7.120;2023-11-21T12:02:44;10.34;90.20
13713;DHT22;6928;50.546;7.120;2023-11-21T12:05:12;10.33;90.31
13713;DHT22;6928;50.546;7.120;2023-11-21T12:07:47;10.29;90.29
13713;DHT22;6928;50.546;7.120;2023-11-21T12:10:16;10.28;90.55
13713;DHT22;6928;50.546;7.120;2023-11-21T12:12:45;10.36;90.63
13713;DHT22;6928;50.546;7.120;2023-11-21T12:15:12;10.32;90.80
13713;DHT22;6928;50.546;7.120;2023-11-21T12:17:41;10.29;90.97
13713;DHT22;6928;50.546;7.120;2023-11-21T12:20:10;10.23;90.81
13713;DHT22;6928;50.546;7.120;2023-11-21T12:22:46;10.28;90.78
13713;DHT22;6928;50.546;7.120;2023-11-21T12:25:17;10.15;90.75
13713;DHT22;6928;50.546;7.120;2023-11-21T12:27:45;10.06;90.27
13713;DHT22;6928;50.546;7.120;2023-11-21T12:30:16;10.05;90.48
13713;DHT22;6928;50.546;7.120;2023-11-21T12:32:49;10.05;90.55
13713;DHT22;6928;50.546;7.120;2023-11-21T12:35:17;10.05;90.70
13713;DHT22;6928;50.546;7.120;2023-11-21T12:37:48;10.08;90.72
13713;DHT22;6928;50.546;7.120;2023-11-21T12:40:16;10.09;90.96
13713;DHT22;6928;50.546;7.120;2023-11-21T12:42:44;10.06;90.98
13713;DHT22;6928;50.546;7.120;2023-11-21T12:45:20;10.10;90.91
13713;DHT22;6928;50.546;7.120;2023-11-21T12:47:51;10.13;90.70
13713;DHT22;6928;50.546;7.120;2023-11-21T12:50:21;10.08;90.26
13713;DHT22;6928;50.546;7.120;2023-11-21T12:52:54;10.09;90.29
13713;DHT22;6928;50.546;7.120;2023-11-21T12:55:22;10.12;90.29
13713;DHT22;6928;50.546;7.120;2023-11-21T12:57:50;10.15;90.58
13713;DHT22;6928;50.546;7.120;2023-11-21T13:00:28;10.19;90.79
13713;DHT22;6928;50.546;7.120;2023-11-21T13:02:57;10.10;90.33
13713;DHT22;6928;50.546;7.120;2023-11-21T13:05:28;10.15;90.35
13713;DHT22;6928;50.546;7.120;2023-11-21T13:08:00;10.19;90.61
13713;DHT22;6928;50.546;7.120;2023-11-21T13:10:29;10.22;90.51
13713;DHT22;6928;50.546;7.120;2023-11-21T13:12:57;10.15;90.35
13713;DHT22;6928;50.546;7.120;2023-11-21T13:15:26;10.18;90.33
13713;DHT22;6928;50.546;7.120;2023-11-21T13:17:53;11.07;90.70
13713;DHT22;6928;50.546;7.120;2023-11-21T13:20:21;10.50;89.82
13713;DHT22;6928;50.546;7.120;2023-11-21T13:22:50;10.36;90.11
13713;DHT22;6928;50.546;7.120;2023-11-21T13:25:21;10.39;90.11
13713;DHT22;6928;50.546;7.120;2023-11-21T13:27:48;10.32;90.11
13713;DHT22;6928;50.546;7.120;2023-11-21T13:30:16;10.39;90.11
13713;DHT22;6928;50.546;7.120;2023-11-21T13:32:44;10.44;90.28
13713;DHT22;6928;50.546;7.120;2023-11-21T13:35:12;10.36;90.12
13713;DHT22;6928;50.546;7.120;2023-11-21T13:37:48;10.30;90.11
13713;DHT22;6928;50.546;7.120;2023-11-21T13:40:21;10.34;90.03
13713;DHT22;6928;50.546;7.120;2023-11-21T13:42:52;10.32;90.00
13713;DHT22;6928;50.546;7.120;2023-11-21T13:45:21;10.29;89.86
13713;DHT22;6928;50.546;7.120;2023-11-21T13:47:50;10.34;90.16
13713;DHT22;6928;50.546;7.120;2023-11-21T13:50:24;10.63;89.79
13713;DHT22;6928;50.546;7.120;2023-11-21T13:52:57;10.44;89.70
13713;DHT22;6928;50.546;7.120;2023-11-21T13:55:30;10.40;89.90
13713;DHT22;6928;50.546;7.120;2023-11-21T13:57:56;10.32;89.84
13713;DHT22;6928;50.546;7.120;2023-11-21T14:00:24;10.34;89.80
13713;DHT22;6928;50.546;7.120;2023-11-21T14:03:09;10.34;89.97
13713;DHT22;6928;50.546;7.120;2023-11-21T14:05:44;10.36;90.19
13713;DHT22;6928;50.546;7.120;2023-11-21T14:08:13;10.29;90.12
13713;DHT22;6928;50.546;7.120;2023-11-21T14:10:44;10.29;89.97
13713;DHT22;6928;50.546;7.120;2023-11-21T14:13:16;10.30;90.29
13713;DHT22;6928;50.546;7.120;2023-11-21T14:15:43;10.34;90.19
13713;DHT22;6928;50.546;7.120;2023-11-21T14:18:12;10.34;90.30
13713;DHT22;6928;50.546;7.120;2023-11-21T14:20:42;10.32;90.36
13713;DHT22;6928;50.546;7.120;2023-11-21T14:23:10;10.23;90.15
13713;DHT22;6928;50.546;7.120;2023-11-21T14:25:37;10.20;90.32
13713;DHT22;6928;50.546;7.120;2023-11-21T14:28:09;10.20;90.44
13713;DHT22;6928;50.546;7.120;2023-11-21T14:30:37;10.18;90.64
13713;DHT22;6928;50.546;7.120;2023-11-21T14:33:05;10.18;90.65
13713;DHT22;6928;50.546;7.120;2023-11-21T14:35:33;10.25;90.96
13713;DHT22;6928;50.546;7.120;2023-11-21T14:38:00;10.23;90.51
13713;DHT22;6928;50.546;7.120;2023-11-21T14:40:30;10.28;90.42
13713;DHT22;6928;50.546;7.120;2023-11-21T14:42:59;10.25;90.98
13713;DHT22;6928;50.546;7.120;2023-11-21T14:45:28;10.19;90.76
13713;DHT22;6928;50.546;7.120;2023-11-21T14:47:55;10.26;90.77
13713;DHT22;6928;50.546;7.120;2023-11-21T14:50:32;10.26;90.57
13713;DHT22;6928;50.546;7.120;2023-11-21T14:53:31;10.23;90.49
13713;DHT22;6928;50.546;7.120;2023-11-21T14:56:09;10.25;90.79
13713;DHT22;6928;50.546;7.120;2023-11-21T14:58:35;10.30;90.45
13713;DHT22;6928;50.546;7.120;2023-11-21T15:01:06;10.29;90.92
13713;DHT22;6928;50.546;7.120;2023-11-21T15:03:34;10.19;90.76
13713;DHT22;6928;50.546;7.120;2023-11-21T15:06:15;10.15;90.22
13713;DHT22;6928;50.546;7.120;2023-11-21T15:08:49;10.13;90.76
13713;DHT22;6928;50.546;7.120;2023-11-21T15:11:19;10.12;90.95
13713;DHT22;6928;50.546;7.120;2023-11-21T15:13:49;10.18;90.75
13713;DHT22;6928;50.546;7.120;2023-11-21T15:16:19;10.15;91.08
13713;DHT22;6928;50.546;7.120;2023-11-21T15:18:46;10.18;90.87
13713;DHT22;6928;50.546;7.120;2023-11-21T15:21:13;10.15;90.91
13713;DHT22;6928;50.546;7.120;2023-11-21T15:23:39;10.16;91.06
13713;DHT22;6928;50.546;7.120;2023-11-21T15:26:07;10.16;91.04
13713;DHT22;6928;50.546;7.120;2023-11-21T15:28:35;10.12;91.20
13713;DHT22;6928;50.546;7.120;2023-11-21T15:31:02;10.08;91.02
13713;DHT22;6928;50.546;7.120;2023-11-21T15:33:31;10.10;91.34
13713;DHT22;6928;50.546;7.120;2023-11-21T15:35:58;10.08;90.96
13713;DHT22;6928;50.546;7.120;2023-11-21T15:38:25;10.06;91.06
13713;DHT22;6928;50.546;7.120;2023-11-21T15:40:51;10.06;91.45
13713;DHT22;6928;50.546;7.120;2023-11-21T15:43:19;10.12;91.14
13713;DHT22;6928;50.546;7.120;2023-11-21T15:45:46;10.10;91.02
13713;DHT22;6928;50.546;7.120;2023-11-21T15:48:13;10.09;91.21
13713;DHT22;6928;50.546;7.120;2023-11-21T15:50:43;10.08;91.12
13713;DHT22;6928;50.546;7.120;2023-11-21T15:53:10;10.13;91.15
13713;DHT22;6928;50.546;7.120;2023-11-21T15:55:37;10.16;91.11
13713;DHT22;6928;50.546;7.120;2023-11-21T15:58:08;10.12;91.26
13713;DHT22;6928;50.546;7.120;2023-11-21T16:00:34;10.18;91.20
13713;DHT22;6928;50.546;7.120;2023-11-21T16:03:02;10.16;91.43
13713;DHT22;6928;50.546;7.120;2023-11-21T16:05:29;10.09;91.49
13713;DHT22;6928;50.546;7.120;2023-11-21T16:07:58;10.08;91.26